sensor_id;sensor_type;location;lat;lon;timestamp;temperature;humidity
6536;DHT22;34330;52.08032700;5.40923460;2022-12-07T00:01:21;7.80;90.90
6536;DHT22;34330;52.08032700;5.40923460;2022-12-07T00:03:51;7.80;91.10
6536;DHT22;34330;52.08032700;5.40923460;2022-12-07T00:06:24;7.80;91.00
6536;DHT22;34330;52.08032700;5.40923460;2022-12-07T00:08:53;7.80;91.00
6536;DHT22;34330;52.08032700;5.40923460;2022-12-07T00:11:24;7.90;91.10
6536;DHT22;34330;52.08032700;5.40923460;2022-12-07T00:13:57;7.70;91.00
6536;DHT22;34330;52.08032700;5.40923460;2022-12-07T00:16:30;7.90;91.10
6536;DHT22;34330;52.08032700;5.40923460;2022-12-07T00:18:58;7.80;91.10
6536;DHT22;34330;52.08032700;5.40923460;2022-12-07T00:21:32;7.80;91.10
6536;DHT22;34330;52.08032700;5.40923460;2022-12-07T00:24:02;7.80;91.00
6536;DHT22;34330;52.08032700;5.40923460;2022-12-07T00:26:32;7.80;91.00
6536;DHT22;34330;52.08032700;5.40923460;2022-12-07T00:29:02;7.70;90.80
6536;DHT22;34330;52.08032700;5.40923460;2022-12-07T00:31:32;7.70;90.90
6536;DHT22;34330;52.08032700;5.40923460;2022-12-07T00:34:02;7.70;90.80
6536;DHT22;34330;52.08032700;5.40923460;2022-12-07T00:36:30;7.60;90.80
6536;DHT22;34330;52.08032700;5.40923460;2022-12-07T00:38:59;7.60;90.70
6536;DHT22;34330;52.08032700;5.40923460;2022-12-07T00:41:29;7.70;90.80
6536;DHT22;34330;52.08032700;5.40923460;2022-12-07T00:44:03;7.60;90.70
6536;DHT22;34330;52.08032700;5.40923460;2022-12-07T00:46:31;7.70;90.80
6536;DHT22;34330;52.08032700;5.40923460;2022-12-07T00:48:59;7.60;90.80
6536;DHT22;34330;52.08032700;5.40923460;2022-12-07T00:51:27;7.60;90.80
6536;DHT22;34330;52.08032700;5.40923460;2022-12-07T00:53:57;7.40;90.80
6536;DHT22;34330;52.08032700;5.40923460;2022-12-07T00:56:30;7.60;90.90
6536;DHT22;34330;52.08032700;5.40923460;2022-12-07T00:59:00;7.50;90.90
6536;DHT22;34330;52.08032700;5.40923460;2022-12-07T01:01:31;7.50;90.90
6536;DHT22;34330;52.08032700;5.40923460;2022-12-07T01:04:02;7.50;90.90
6536;DHT22;34330;52.08032700;5.40923460;2022-12-07T01:06:32;7.40;90.80
6536;DHT22;34330;52.08032700;5.40923460;2022-12-07T01:09:01;7.40;90.80
6536;DHT22;34330;52.08032700;5.40923460;2022-12-07T01:11:32;7.50;90.90
6536;DHT22;34330;52.08032700;5.40923460;2022-12-07T01:16:30;7.40;90.80
6536;DHT22;34330;52.08032700;5.40923460;2022-12-07T01:18:59;7.40;90.80
6536;DHT22;34330;52.08032700;5.40923460;2022-12-07T01:21:29;7.40;90.80
6536;DHT22;34330;52.08032700;5.40923460;2022-12-07T01:24:01;7.30;90.80
6536;DHT22;34330;52.08032700;5.40923460;2022-12-07T01:26:30;7.30;90.80
6536;DHT22;34330;52.08032700;5.40923460;2022-12-07T01:28:59;7.30;90.90
6536;DHT22;34330;52.08032700;5.40923460;2022-12-07T01:31:29;7.30;90.90
6536;DHT22;34330;52.08032700;5.40923460;2022-12-07T01:33:59;7.30;90.90
6536;DHT22;34330;52.08032700;5.40923460;2022-12-07T01:36:29;7.30;90.80
6536;DHT22;34330;52.08032700;5.40923460;2022-12-07T01:39:00;7.30;90.80
6536;DHT22;34330;52.08032700;5.40923460;2022-12-07T01:41:34;7.30;90.80
6536;DHT22;34330;52.08032700;5.40923460;2022-12-07T01:44:18;7.30;90.80
6536;DHT22;34330;52.08032700;5.40923460;2022-12-07T01:49:00;7.20;90.60
6536;DHT22;34330;52.08032700;5.40923460;2022-12-07T01:51:29;7.10;90.60
6536;DHT22;34330;52.08032700;5.40923460;2022-12-07T01:53:57;7.20;90.60
6536;DHT22;34330;52.08032700;5.40923460;2022-12-07T01:56:36;7.10;90.60
6536;DHT22;34330;52.08032700;5.40923460;2022-12-07T01:59:04;7.10;90.60
6536;DHT22;34330;52.08032700;5.40923460;2022-12-07T02:03:46;7.00;90.50
6536;DHT22;34330;52.08032700;5.40923460;2022-12-07T02:06:20;7.10;90.50
6536;DHT22;34330;52.08032700;5.40923460;2022-12-07T02:08:50;7.00;90.40
6536;DHT22;34330;52.08032700;5.40923460;2022-12-07T02:11:20;6.90;90.40
6536;DHT22;34330;52.08032700;5.40923460;2022-12-07T02:13:49;6.90;90.40
6536;DHT22;34330;52.08032700;5.40923460;2022-12-07T02:16:25;7.00;90.40
6536;DHT22;34330;52.08032700;5.40923460;2022-12-07T02:21:12;6.80;90.30
6536;DHT22;34330;52.08032700;5.40923460;2022-12-07T02:24:12;6.90;90.90
6536;DHT22;34330;52.08032700;5.40923460;2022-12-07T02:27:14;6.80;90.40
6536;DHT22;34330;52.08032700;5.40923460;2022-12-07T02:29:51;6.80;90.50
6536;DHT22;34330;52.08032700;5.40923460;2022-12-07T02:32:25;6.90;90.60
6536;DHT22;34330;52.08032700;5.40923460;2022-12-07T02:34:58;6.80;90.70
6536;DHT22;34330;52.08032700;5.40923460;2022-12-07T02:37:35;6.80;90.80
6536;DHT22;34330;52.08032700;5.40923460;2022-12-07T02:40:09;6.90;90.80
6536;DHT22;34330;52.08032700;5.40923460;2022-12-07T02:42:42;6.80;90.90
6536;DHT22;34330;52.08032700;5.40923460;2022-12-07T02:45:17;6.80;90.90
6536;DHT22;34330;52.08032700;5.40923460;2022-12-07T02:47:49;6.80;90.90
6536;DHT22;34330;52.08032700;5.40923460;2022-12-07T02:50:19;6.80;90.90
6536;DHT22;34330;52.08032700;5.40923460;2022-12-07T02:52:48;6.80;91.20
6536;DHT22;34330;52.08032700;5.40923460;2022-12-07T02:55:19;6.90;91.10
6536;DHT22;34330;52.08032700;5.40923460;2022-12-07T02:58:02;6.80;91.00
6536;DHT22;34330;52.08032700;5.40923460;2022-12-07T03:00:44;7.00;91.10
6536;DHT22;34330;52.08032700;5.40923460;2022-12-07T03:03:16;6.90;91.10
6536;DHT22;34330;52.08032700;5.40923460;2022-12-07T03:06:10;7.00;91.20
6536;DHT22;34330;52.08032700;5.40923460;2022-12-07T03:08:55;6.90;91.10
6536;DHT22;34330;52.08032700;5.40923460;2022-12-07T03:11:29;7.00;91.20
6536;DHT22;34330;52.08032700;5.40923460;2022-12-07T03:14:02;7.00;91.20
6536;DHT22;34330;52.08032700;5.40923460;2022-12-07T03:16:39;6.90;91.20
6536;DHT22;34330;52.08032700;5.40923460;2022-12-07T03:19:11;7.10;91.40
6536;DHT22;34330;52.08032700;5.40923460;2022-12-07T03:21:44;7.10;91.40
6536;DHT22;34330;52.08032700;5.40923460;2022-12-07T03:24:14;7.00;91.40
6536;DHT22;34330;52.08032700;5.40923460;2022-12-07T03:26:47;8.80;92.40
6536;DHT22;34330;52.08032700;5.40923460;2022-12-07T03:29:21;7.10;91.60
6536;DHT22;34330;52.08032700;5.40923460;2022-12-07T03:31:56;7.20;91.60
6536;DHT22;34330;52.08032700;5.40923460;2022-12-07T03:34:39;7.20;91.70
6536;DHT22;34330;52.08032700;5.40923460;2022-12-07T03:37:12;7.10;91.90
6536;DHT22;34330;52.08032700;5.40923460;2022-12-07T03:39:49;7.10;91.60
6536;DHT22;34330;52.08032700;5.40923460;2022-12-07T03:42:33;7.10;91.60
6536;DHT22;34330;52.08032700;5.40923460;2022-12-07T03:45:03;7.20;91.60
6536;DHT22;34330;52.08032700;5.40923460;2022-12-07T03:47:36;7.20;91.60
6536;DHT22;34330;52.08032700;5.40923460;2022-12-07T03:50:09;7.20;91.50
6536;DHT22;34330;52.08032700;5.40923460;2022-12-07T03:54:57;7.20;91.30
6536;DHT22;34330;52.08032700;5.40923460;2022-12-07T03:59:42;7.20;91.30
6536;DHT22;34330;52.08032700;5.40923460;2022-12-07T04:02:12;7.20;91.20
6536;DHT22;34330;52.08032700;5.40923460;2022-12-07T04:04:41;7.20;91.20
6536;DHT22;34330;52.08032700;5.40923460;2022-12-07T04:07:10;7.30;91.30
6536;DHT22;34330;52.08032700;5.40923460;2022-12-07T04:09:39;7.30;91.30
6536;DHT22;34330;52.08032700;5.40923460;2022-12-07T04:12:07;7.20;91.30
6536;DHT22;34330;52.08032700;5.40923460;2022-12-07T04:14:35;7.10;91.30
6536;DHT22;34330;52.08032700;5.40923460;2022-12-07T04:17:04;7.30;91.30
6536;DHT22;34330;52.08032700;5.40923460;2022-12-07T04:19:36;7.40;91.40
6536;DHT22;34330;52.08032700;5.40923460;2022-12-07T04:22:05;7.20;91.30
6536;DHT22;34330;52.08032700;5.40923460;2022-12-07T04:24:33;7.20;91.40
6536;DHT22;34330;52.08032700;5.40923460;2022-12-07T04:27:02;7.30;91.50
6536;DHT22;34330;52.08032700;5.40923460;2022-12-07T04:29:30;7.30;91.50
6536;DHT22;34330;52.08032700;5.40923460;2022-12-07T04:34:29;7.30;91.60
6536;DHT22;34330;52.08032700;5.40923460;2022-12-07T04:37:08;7.20;91.50
6536;DHT22;34330;52.08032700;5.40923460;2022-12-07T04:42:06;7.30;91.50
6536;DHT22;34330;52.08032700;5.40923460;2022-12-07T04:44:35;7.30;91.50
6536;DHT22;34330;52.08032700;5.40923460;2022-12-07T04:47:03;7.40;91.40
6536;DHT22;34330;52.08032700;5.40923460;2022-12-07T04:49:36;7.20;91.30
6536;DHT22;34330;52.08032700;5.40923460;2022-12-07T04:52:07;7.30;91.30
6536;DHT22;34330;52.08032700;5.40923460;2022-12-07T04:54:36;7.20;91.40
6536;DHT22;34330;52.08032700;5.40923460;2022-12-07T04:57:06;7.30;91.60
6536;DHT22;34330;52.08032700;5.40923460;2022-12-07T04:59:34;7.30;91.50
6536;DHT22;34330;52.08032700;5.40923460;2022-12-07T05:02:11;7.20;91.50
6536;DHT22;34330;52.08032700;5.40923460;2022-12-07T05:04:40;7.20;91.60
6536;DHT22;34330;52.08032700;5.40923460;2022-12-07T05:09:42;7.30;91.60
6536;DHT22;34330;52.08032700;5.40923460;2022-12-07T05:12:12;7.30;91.60
6536;DHT22;34330;52.08032700;5.40923460;2022-12-07T05:14:42;7.30;91.60
6536;DHT22;34330;52.08032700;5.40923460;2022-12-07T05:17:10;7.30;91.50
6536;DHT22;34330;52.08032700;5.40923460;2022-12-07T05:22:08;7.40;91.40
6536;DHT22;34330;52.08032700;5.40923460;2022-12-07T05:24:36;7.30;91.20
6536;DHT22;34330;52.08032700;5.40923460;2022-12-07T05:27:04;7.30;91.20
6536;DHT22;34330;52.08032700;5.40923460;2022-12-07T05:29:31;7.30;91.10
6536;DHT22;34330;52.08032700;5.40923460;2022-12-07T05:34:28;7.30;90.90
6536;DHT22;34330;52.08032700;5.40923460;2022-12-07T05:36:58;7.30;90.80
6536;DHT22;34330;52.08032700;5.40923460;2022-12-07T05:39:33;7.20;90.70
6536;DHT22;34330;52.08032700;5.40923460;2022-12-07T05:42:01;7.30;90.70
6536;DHT22;34330;52.08032700;5.40923460;2022-12-07T05:44:42;7.20;90.70
6536;DHT22;34330;52.08032700;5.40923460;2022-12-07T05:47:14;7.10;90.60
6536;DHT22;34330;52.08032700;5.40923460;2022-12-07T05:52:14;7.10;90.60
6536;DHT22;34330;52.08032700;5.40923460;2022-12-07T05:54:43;7.10;90.60
6536;DHT22;34330;52.08032700;5.40923460;2022-12-07T05:57:11;7.00;90.80
6536;DHT22;34330;52.08032700;5.40923460;2022-12-07T05:59:39;7.00;90.60
6536;DHT22;34330;52.08032700;5.40923460;2022-12-07T06:02:08;6.90;90.60
6536;DHT22;34330;52.08032700;5.40923460;2022-12-07T06:04:39;6.90;90.60
6536;DHT22;34330;52.08032700;5.40923460;2022-12-07T06:07:08;6.80;90.60
6536;DHT22;34330;52.08032700;5.40923460;2022-12-07T06:09:36;6.90;90.70
6536;DHT22;34330;52.08032700;5.40923460;2022-12-07T06:12:09;6.80;90.60
6536;DHT22;34330;52.08032700;5.40923460;2022-12-07T06:14:57;6.70;90.60
6536;DHT22;34330;52.08032700;5.40923460;2022-12-07T06:17:28;6.90;90.70
6536;DHT22;34330;52.08032700;5.40923460;2022-12-07T06:19:55;6.80;90.60
6536;DHT22;34330;52.08032700;5.40923460;2022-12-07T06:22:25;6.80;90.60
6536;DHT22;34330;52.08032700;5.40923460;2022-12-07T06:24:56;6.80;90.70
6536;DHT22;34330;52.08032700;5.40923460;2022-12-07T06:27:25;6.70;90.70
6536;DHT22;34330;52.08032700;5.40923460;2022-12-07T06:29:53;6.70;90.70
6536;DHT22;34330;52.08032700;5.40923460;2022-12-07T06:34:53;6.70;90.80
6536;DHT22;34330;52.08032700;5.40923460;2022-12-07T06:39:50;6.80;90.90
6536;DHT22;34330;52.08032700;5.40923460;2022-12-07T06:42:18;6.70;90.90
6536;DHT22;34330;52.08032700;5.40923460;2022-12-07T06:44:47;6.70;90.90
6536;DHT22;34330;52.08032700;5.40923460;2022-12-07T06:47:15;6.70;90.90
6536;DHT22;34330;52.08032700;5.40923460;2022-12-07T06:50:04;6.70;90.90
6536;DHT22;34330;52.08032700;5.40923460;2022-12-07T06:52:37;6.60;90.90
6536;DHT22;34330;52.08032700;5.40923460;2022-12-07T06:55:06;6.70;90.90
6536;DHT22;34330;52.08032700;5.40923460;2022-12-07T06:57:33;6.70;91.10
6536;DHT22;34330;52.08032700;5.40923460;2022-12-07T07:00:04;6.70;91.00
6536;DHT22;34330;52.08032700;5.40923460;2022-12-07T07:02:32;6.70;91.00
6536;DHT22;34330;52.08032700;5.40923460;2022-12-07T07:05:02;6.70;91.00
6536;DHT22;34330;52.08032700;5.40923460;2022-12-07T07:07:30;6.50;90.90
6536;DHT22;34330;52.08032700;5.40923460;2022-12-07T07:10:17;6.70;90.90
6536;DHT22;34330;52.08032700;5.40923460;2022-12-07T07:12:45;7.50;91.40
6536;DHT22;34330;52.08032700;5.40923460;2022-12-07T07:15:14;6.60;90.80
6536;DHT22;34330;52.08032700;5.40923460;2022-12-07T07:17:45;6.70;90.80
6536;DHT22;34330;52.08032700;5.40923460;2022-12-07T07:20:13;6.60;90.80
6536;DHT22;34330;52.08032700;5.40923460;2022-12-07T07:22:41;6.60;90.80
6536;DHT22;34330;52.08032700;5.40923460;2022-12-07T07:25:11;6.60;91.00
6536;DHT22;34330;52.08032700;5.40923460;2022-12-07T07:27:39;6.70;90.90
6536;DHT22;34330;52.08032700;5.40923460;2022-12-07T07:30:14;6.50;90.80
6536;DHT22;34330;52.08032700;5.40923460;2022-12-07T07:32:42;6.60;90.80
6536;DHT22;34330;52.08032700;5.40923460;2022-12-07T07:35:13;6.50;90.60
6536;DHT22;34330;52.08032700;5.40923460;2022-12-07T07:37:43;6.50;90.60
6536;DHT22;34330;52.08032700;5.40923460;2022-12-07T07:40:13;6.50;90.50
6536;DHT22;34330;52.08032700;5.40923460;2022-12-07T07:42:43;6.50;90.60
6536;DHT22;34330;52.08032700;5.40923460;2022-12-07T07:45:11;6.50;90.50
6536;DHT22;34330;52.08032700;5.40923460;2022-12-07T07:47:43;6.40;90.40
6536;DHT22;34330;52.08032700;5.40923460;2022-12-07T07:50:11;6.40;90.40
6536;DHT22;34330;52.08032700;5.40923460;2022-12-07T07:52:39;6.30;90.40
6536;DHT22;34330;52.08032700;5.40923460;2022-12-07T07:55:09;6.30;90.40
6536;DHT22;34330;52.08032700;5.40923460;2022-12-07T07:57:39;6.40;90.50
6536;DHT22;34330;52.08032700;5.40923460;2022-12-07T08:00:09;6.40;90.60
6536;DHT22;34330;52.08032700;5.40923460;2022-12-07T08:02:38;6.30;90.70
6536;DHT22;34330;52.08032700;5.40923460;2022-12-07T08:05:08;6.40;90.90
6536;DHT22;34330;52.08032700;5.40923460;2022-12-07T08:07:39;6.30;90.70
6536;DHT22;34330;52.08032700;5.40923460;2022-12-07T08:10:13;6.30;90.60
6536;DHT22;34330;52.08032700;5.40923460;2022-12-07T08:12:43;6.30;90.60
6536;DHT22;34330;52.08032700;5.40923460;2022-12-07T08:15:31;9.30;91.90
6536;DHT22;34330;52.08032700;5.40923460;2022-12-07T08:17:59;6.20;90.70
6536;DHT22;34330;52.08032700;5.40923460;2022-12-07T08:20:31;6.30;90.70
6536;DHT22;34330;52.08032700;5.40923460;2022-12-07T08:25:28;6.30;90.80
6536;DHT22;34330;52.08032700;5.40923460;2022-12-07T08:27:56;6.30;90.80
6536;DHT22;34330;52.08032700;5.40923460;2022-12-07T08:30:27;6.20;90.80
6536;DHT22;34330;52.08032700;5.40923460;2022-12-07T08:32:55;6.30;91.00
6536;DHT22;34330;52.08032700;5.40923460;2022-12-07T08:35:32;6.40;91.20
6536;DHT22;34330;52.08032700;5.40923460;2022-12-07T08:38:01;6.50;91.50
6536;DHT22;34330;52.08032700;5.40923460;2022-12-07T08:40:29;6.40;91.70
6536;DHT22;34330;52.08032700;5.40923460;2022-12-07T08:42:57;6.50;91.90
6536;DHT22;34330;52.08032700;5.40923460;2022-12-07T08:48:04;6.70;92.20
6536;DHT22;34330;52.08032700;5.40923460;2022-12-07T08:50:41;6.70;92.20
6536;DHT22;34330;52.08032700;5.40923460;2022-12-07T08:53:15;6.80;92.30
6536;DHT22;34330;52.08032700;5.40923460;2022-12-07T08:55:44;6.90;92.40
6536;DHT22;34330;52.08032700;5.40923460;2022-12-07T08:58:18;6.90;92.30
6536;DHT22;34330;52.08032700;5.40923460;2022-12-07T09:03:14;7.00;92.30
6536;DHT22;34330;52.08032700;5.40923460;2022-12-07T09:05:45;7.10;92.40
6536;DHT22;34330;52.08032700;5.40923460;2022-12-07T09:08:14;7.10;92.20
6536;DHT22;34330;52.08032700;5.40923460;2022-12-07T09:10:42;7.10;92.10
6536;DHT22;34330;52.08032700;5.40923460;2022-12-07T09:13:12;7.20;92.20
6536;DHT22;34330;52.08032700;5.40923460;2022-12-07T09:15:43;7.30;92.20
6536;DHT22;34330;52.08032700;5.40923460;2022-12-07T09:18:11;7.30;92.20
6536;DHT22;34330;52.08032700;5.40923460;2022-12-07T09:20:39;7.30;92.20
6536;DHT22;34330;52.08032700;5.40923460;2022-12-07T09:23:08;7.40;92.30
6536;DHT22;34330;52.08032700;5.40923460;2022-12-07T09:30:33;7.50;92.30
6536;DHT22;34330;52.08032700;5.40923460;2022-12-07T09:35:50;7.70;92.40
6536;DHT22;34330;52.08032700;5.40923460;2022-12-07T09:38:20;7.60;92.50
6536;DHT22;34330;52.08032700;5.40923460;2022-12-07T09:40:48;7.80;92.50
6536;DHT22;34330;52.08032700;5.40923460;2022-12-07T09:43:21;7.80;92.50
6536;DHT22;34330;52.08032700;5.40923460;2022-12-07T09:45:56;7.70;92.40
6536;DHT22;34330;52.08032700;5.40923460;2022-12-07T09:48:32;7.90;92.40
6536;DHT22;34330;52.08032700;5.40923460;2022-12-07T09:51:13;7.90;92.40
6536;DHT22;34330;52.08032700;5.40923460;2022-12-07T09:53:51;8.00;92.40
6536;DHT22;34330;52.08032700;5.40923460;2022-12-07T09:56:21;8.00;92.30
6536;DHT22;34330;52.08032700;5.40923460;2022-12-07T09:58:50;8.00;92.30
6536;DHT22;34330;52.08032700;5.40923460;2022-12-07T10:01:21;11.10;93.10
6536;DHT22;34330;52.08032700;5.40923460;2022-12-07T10:03:52;8.10;92.30
6536;DHT22;34330;52.08032700;5.40923460;2022-12-07T10:08:50;8.20;92.10
6536;DHT22;34330;52.08032700;5.40923460;2022-12-07T10:11:32;8.20;92.10
6536;DHT22;34330;52.08032700;5.40923460;2022-12-07T10:14:11;8.30;92.10
6536;DHT22;34330;52.08032700;5.40923460;2022-12-07T10:16:43;8.30;92.10
6536;DHT22;34330;52.08032700;5.40923460;2022-12-07T10:19:23;8.30;92.00
6536;DHT22;34330;52.08032700;5.40923460;2022-12-07T10:22:09;8.40;91.90
6536;DHT22;34330;52.08032700;5.40923460;2022-12-07T10:24:39;8.40;91.80
6536;DHT22;34330;52.08032700;5.40923460;2022-12-07T10:27:19;8.50;91.90
6536;DHT22;34330;52.08032700;5.40923460;2022-12-07T10:29:50;8.50;91.80
6536;DHT22;34330;52.08032700;5.40923460;2022-12-07T10:32:31;8.60;91.90
6536;DHT22;34330;52.08032700;5.40923460;2022-12-07T10:35:20;8.50;91.80
6536;DHT22;34330;52.08032700;5.40923460;2022-12-07T10:37:54;8.50;91.80
6536;DHT22;34330;52.08032700;5.40923460;2022-12-07T10:40:35;8.60;91.80
6536;DHT22;34330;52.08032700;5.40923460;2022-12-07T10:43:15;8.60;91.70
6536;DHT22;34330;52.08032700;5.40923460;2022-12-07T10:46:05;8.70;91.60
6536;DHT22;34330;52.08032700;5.40923460;2022-12-07T10:48:47;8.50;91.50
6536;DHT22;34330;52.08032700;5.40923460;2022-12-07T10:51:27;8.70;91.80
6536;DHT22;34330;52.08032700;5.40923460;2022-12-07T10:54:11;8.80;91.80
6536;DHT22;34330;52.08032700;5.40923460;2022-12-07T10:59:53;8.80;91.90
6536;DHT22;34330;52.08032700;5.40923460;2022-12-07T11:05:25;8.90;92.10
6536;DHT22;34330;52.08032700;5.40923460;2022-12-07T11:08:03;8.80;92.00
6536;DHT22;34330;52.08032700;5.40923460;2022-12-07T11:10:41;8.90;92.00
6536;DHT22;34330;52.08032700;5.40923460;2022-12-07T11:13:32;9.00;92.10
6536;DHT22;34330;52.08032700;5.40923460;2022-12-07T11:16:19;9.10;92.00
6536;DHT22;34330;52.08032700;5.40923460;2022-12-07T11:21:56;9.20;91.90
6536;DHT22;34330;52.08032700;5.40923460;2022-12-07T11:24:30;9.30;91.80
6536;DHT22;34330;52.08032700;5.40923460;2022-12-07T11:27:12;9.40;91.80
6536;DHT22;34330;52.08032700;5.40923460;2022-12-07T11:29:53;9.40;91.70
6536;DHT22;34330;52.08032700;5.40923460;2022-12-07T11:32:40;9.30;91.40
6536;DHT22;34330;52.08032700;5.40923460;2022-12-07T11:35:14;9.50;91.40
6536;DHT22;34330;52.08032700;5.40923460;2022-12-07T11:40:18;9.50;91.20
6536;DHT22;34330;52.08032700;5.40923460;2022-12-07T11:42:52;9.50;91.10
6536;DHT22;34330;52.08032700;5.40923460;2022-12-07T11:45:25;9.50;91.00
6536;DHT22;34330;52.08032700;5.40923460;2022-12-07T11:47:57;9.50;91.20
6536;DHT22;34330;52.08032700;5.40923460;2022-12-07T11:50:34;9.60;91.20
6536;DHT22;34330;52.08032700;5.40923460;2022-12-07T11:53:05;9.50;91.10
6536;DHT22;34330;52.08032700;5.40923460;2022-12-07T11:55:44;9.50;91.10
6536;DHT22;34330;52.08032700;5.40923460;2022-12-07T11:58:34;9.50;91.10
6536;DHT22;34330;52.08032700;5.40923460;2022-12-07T12:01:14;9.50;91.00
6536;DHT22;34330;52.08032700;5.40923460;2022-12-07T12:03:45;9.50;90.90
6536;DHT22;34330;52.08032700;5.40923460;2022-12-07T12:06:19;9.50;91.00
6536;DHT22;34330;52.08032700;5.40923460;2022-12-07T12:08:53;9.40;90.90
6536;DHT22;34330;52.08032700;5.40923460;2022-12-07T12:11:59;9.50;90.90
6536;DHT22;34330;52.08032700;5.40923460;2022-12-07T12:14:59;9.40;90.70
6536;DHT22;34330;52.08032700;5.40923460;2022-12-07T12:17:54;9.40;90.70
6536;DHT22;34330;52.08032700;5.40923460;2022-12-07T12:20:29;9.50;90.60
6536;DHT22;34330;52.08032700;5.40923460;2022-12-07T12:23:09;10.00;90.40
6536;DHT22;34330;52.08032700;5.40923460;2022-12-07T12:27:54;9.50;90.60
6536;DHT22;34330;52.08032700;5.40923460;2022-12-07T12:30:35;9.60;90.50
6536;DHT22;34330;52.08032700;5.40923460;2022-12-07T12:33:11;9.50;90.40
6536;DHT22;34330;52.08032700;5.40923460;2022-12-07T12:35:41;9.60;90.20
6536;DHT22;34330;52.08032700;5.40923460;2022-12-07T12:38:29;9.50;90.20
6536;DHT22;34330;52.08032700;5.40923460;2022-12-07T12:43:47;9.60;90.20
6536;DHT22;34330;52.08032700;5.40923460;2022-12-07T12:46:47;9.60;90.40
6536;DHT22;34330;52.08032700;5.40923460;2022-12-07T12:52:49;9.70;90.50
6536;DHT22;34330;52.08032700;5.40923460;2022-12-07T12:58:41;9.80;90.50
6536;DHT22;34330;52.08032700;5.40923460;2022-12-07T13:01:45;9.90;90.60
6536;DHT22;34330;52.08032700;5.40923460;2022-12-07T13:04:24;9.90;90.50
6536;DHT22;34330;52.08032700;5.40923460;2022-12-07T13:06:53;10.00;90.10
6536;DHT22;34330;52.08032700;5.40923460;2022-12-07T13:09:23;10.20;90.30
6536;DHT22;34330;52.08032700;5.40923460;2022-12-07T13:12:02;10.20;90.30
6536;DHT22;34330;52.08032700;5.40923460;2022-12-07T13:14:43;10.40;90.10
6536;DHT22;34330;52.08032700;5.40923460;2022-12-07T13:17:58;10.50;88.60
6536;DHT22;34330;52.08032700;5.40923460;2022-12-07T13:20:57;10.50;87.70
6536;DHT22;34330;52.08032700;5.40923460;2022-12-07T13:23:29;10.70;87.10
6536;DHT22;34330;52.08032700;5.40923460;2022-12-07T13:26:15;10.70;86.70
6536;DHT22;34330;52.08032700;5.40923460;2022-12-07T13:28:46;10.50;86.90
6536;DHT22;34330;52.08032700;5.40923460;2022-12-07T13:33:29;10.50;87.60
6536;DHT22;34330;52.08032700;5.40923460;2022-12-07T13:35:57;10.40;87.30
6536;DHT22;34330;52.08032700;5.40923460;2022-12-07T13:38:30;10.50;87.60
6536;DHT22;34330;52.08032700;5.40923460;2022-12-07T13:43:14;10.50;87.00
6536;DHT22;34330;52.08032700;5.40923460;2022-12-07T13:45:43;10.40;87.70
6536;DHT22;34330;52.08032700;5.40923460;2022-12-07T13:48:24;10.30;87.70
6536;DHT22;34330;52.08032700;5.40923460;2022-12-07T13:50:55;10.40;88.30
6536;DHT22;34330;52.08032700;5.40923460;2022-12-07T13:53:26;10.30;88.00
6536;DHT22;34330;52.08032700;5.40923460;2022-12-07T13:58:12;10.30;87.70
6536;DHT22;34330;52.08032700;5.40923460;2022-12-07T14:00:43;10.30;87.90
6536;DHT22;34330;52.08032700;5.40923460;2022-12-07T14:03:27;10.20;87.40
6536;DHT22;34330;52.08032700;5.40923460;2022-12-07T14:08:22;10.30;87.40
6536;DHT22;34330;52.08032700;5.40923460;2022-12-07T14:10:55;10.30;87.60
6536;DHT22;34330;52.08032700;5.40923460;2022-12-07T14:13:29;10.30;87.40
6536;DHT22;34330;52.08032700;5.40923460;2022-12-07T14:16:03;10.20;87.20
6536;DHT22;34330;52.08032700;5.40923460;2022-12-07T14:20:46;10.30;87.20
6536;DHT22;34330;52.08032700;5.40923460;2022-12-07T14:23:24;10.30;87.20
6536;DHT22;34330;52.08032700;5.40923460;2022-12-07T14:25:53;10.30;87.20
6536;DHT22;34330;52.08032700;5.40923460;2022-12-07T14:28:26;10.20;87.10
6536;DHT22;34330;52.08032700;5.40923460;2022-12-07T14:33:24;10.20;87.00
6536;DHT22;34330;52.08032700;5.40923460;2022-12-07T14:35:56;10.20;87.40
6536;DHT22;34330;52.08032700;5.40923460;2022-12-07T14:38:25;10.10;86.50
6536;DHT22;34330;52.08032700;5.40923460;2022-12-07T14:40:57;10.10;86.60
6536;DHT22;34330;52.08032700;5.40923460;2022-12-07T14:46:34;10.00;86.50
6536;DHT22;34330;52.08032700;5.40923460;2022-12-07T14:49:02;10.00;86.60
6536;DHT22;34330;52.08032700;5.40923460;2022-12-07T14:51:53;10.00;87.00
6536;DHT22;34330;52.08032700;5.40923460;2022-12-07T14:54:51;10.00;86.80
6536;DHT22;34330;52.08032700;5.40923460;2022-12-07T14:59:35;9.90;87.30
6536;DHT22;34330;52.08032700;5.40923460;2022-12-07T15:02:12;10.20;86.50
6536;DHT22;34330;52.08032700;5.40923460;2022-12-07T15:04:40;9.90;86.80
6536;DHT22;34330;52.08032700;5.40923460;2022-12-07T15:07:14;9.90;86.90
6536;DHT22;34330;52.08032700;5.40923460;2022-12-07T15:09:42;9.80;86.70
6536;DHT22;34330;52.08032700;5.40923460;2022-12-07T15:12:10;9.70;87.00
6536;DHT22;34330;52.08032700;5.40923460;2022-12-07T15:14:40;9.70;86.70
6536;DHT22;34330;52.08032700;5.40923460;2022-12-07T15:17:10;9.60;86.60
6536;DHT22;34330;52.08032700;5.40923460;2022-12-07T15:19:53;9.60;86.70
6536;DHT22;34330;52.08032700;5.40923460;2022-12-07T15:22:21;9.70;87.10
6536;DHT22;34330;52.08032700;5.40923460;2022-12-07T15:24:49;9.60;86.90
6536;DHT22;34330;52.08032700;5.40923460;2022-12-07T15:27:22;9.70;86.90
6536;DHT22;34330;52.08032700;5.40923460;2022-12-07T15:29:53;9.50;86.90
6536;DHT22;34330;52.08032700;5.40923460;2022-12-07T15:32:21;9.60;87.60
6536;DHT22;34330;52.08032700;5.40923460;2022-12-07T15:34:49;9.60;87.70
6536;DHT22;34330;52.08032700;5.40923460;2022-12-07T15:37:21;9.40;87.10
6536;DHT22;34330;52.08032700;5.40923460;2022-12-07T15:39:53;9.50;87.50
6536;DHT22;34330;52.08032700;5.40923460;2022-12-07T15:42:35;9.60;87.70
6536;DHT22;34330;52.08032700;5.40923460;2022-12-07T15:45:06;9.50;87.70
6536;DHT22;34330;52.08032700;5.40923460;2022-12-07T15:47:35;9.50;87.60
6536;DHT22;34330;52.08032700;5.40923460;2022-12-07T15:50:24;9.40;87.30
6536;DHT22;34330;52.08032700;5.40923460;2022-12-07T15:52:51;9.40;87.60